Latest Coastal Weather Observations for Cape Grim

IDV60701

Issued at 9:31 am EST Sunday 22 September 2019 (issued every 10 minutes, with the page automatically refreshed every 10 minutes)

About coastal observations | Map of coastal stations | Coastal observations for VIC | Marine services | Other Formats
Station Details ID: 091331 Name: CAPE GRIM Lat: -40.68 Lon: 144.69 Height: 86.0 m
Data from the previous 72 hours. | See also: Recent months at Cape Grim
Date/Time
EST
Wind Sea
Height
m
Swell Vis
km
Cloud Weather Temp
°C
Press
hPa
Rain since
9am
mm
Dir  Spd
kts
Gust
kts
Height
m
Period
s
Dir
22/09:30am WSW 8 15 - - - - - Partly cloudy - 8.8 1019.3 0.0
22/09:00am W 9 14 - - - - - Cloudy - 9.2 1019.2 2.0
22/08:30am WNW 12 15 - - - - - Partly cloudy - 9.7 1019.0 2.0
22/08:00am W 15 21 - - - - - Partly cloudy - 9.5 1018.6 2.0
22/07:30am W 16 22 - - - - - - - 9.3 1018.2 2.0
22/07:00am W 15 23 - - - - - Partly cloudy - 9.0 1018.0 2.0
22/06:30am W 14 20 - - - - - Partly cloudy - 8.9 1017.6 2.0
22/06:00am W 15 24 - - - - - Mostly clear - 8.8 1017.2 2.0
22/05:30am W 14 23 - - - - - Partly cloudy - 8.7 1016.8 2.0
22/05:00am W 13 19 - - - - - Partly cloudy - 8.1 1016.4 2.0
22/04:45am W 16 35 - - - - - Partly cloudy - 8.8 1016.1 2.0
22/04:30am W 13 22 - - - - - Partly cloudy - 8.7 1016.1 2.0
22/04:00am WSW 13 23 - - - - - Partly cloudy - 8.3 1016.0 2.0
22/03:37am WSW 15 26 - - - - - Partly cloudy - 8.6 1015.7 2.0
22/03:30am WSW 11 19 - - - - - Partly cloudy - 8.3 1015.7 2.0
22/03:00am W 16 30 - - - - - Mostly cloudy - 8.4 1015.5 2.0
22/02:55am W 15 30 - - - - - Partly cloudy - 8.9 1015.4 2.0
22/02:30am W 14 29 - - - - - Cloudy - 8.4 1015.4 2.0
22/02:23am W 16 29 - - - - - Partly cloudy - 8.7 1015.4 2.0
22/02:00am W 17 25 - - - - - Partly cloudy - 7.9 1015.3 2.0
22/01:30am W 13 19 - - - - - - - 8.9 1015.4 1.6
22/01:00am W 14 20 - - - - - Partly cloudy - 9.2 1015.3 1.6
22/12:30am WSW 9 16 - - - - - Partly cloudy - 8.7 1015.4 1.6
22/12:00am SW 18 25 - - - - - Cloudy - 7.8 1015.3 1.6
 
Date/Time
EST
Wind Sea
Height
m
Swell Vis
km
Cloud Weather Temp
°C
Press
hPa
Rain since
9am
mm
Dir  Spd
kts
Gust
kts
Height
m
Period
s
Dir
21/11:30pm W 18 30 - - - - - Partly cloudy - 8.2 1014.8 1.6
21/11:14pm WSW 15 29 - - - - - Partly cloudy - 9.1 1014.4 1.6
21/11:00pm W 12 20 - - - - - Partly cloudy - 9.6 1014.5 1.6
21/10:30pm WSW 13 22 - - - - - Partly cloudy - 9.3 1014.4 1.6
21/10:00pm WSW 10 19 - - - - - Partly cloudy - 8.8 1014.2 1.6
21/09:32pm WSW 15 29 - - - - - Partly cloudy - 9.0 1014.1 1.6
21/09:30pm WSW 13 29 - - - - - Partly cloudy - 9.5 1014.1 1.4
21/09:00pm W 13 20 - - - - - Partly cloudy - 9.1 1013.6 1.2
21/08:30pm SW 15 26 - - - - - Partly cloudy - 9.1 1013.2 1.2
21/08:00pm SW 18 31 - - - - - Partly cloudy - 9.1 1012.7 1.2
21/07:30pm SW 21 31 - - - - - Partly cloudy - 9.5 1012.3 1.2
21/07:00pm SW 20 34 - - - - - Partly cloudy - 9.3 1011.4 1.2
21/06:34pm W 15 25 - - - - - Partly cloudy - 9.0 1010.8 1.2
21/06:30pm W 16 25 - - - - - Partly cloudy - 9.4 1010.7 1.2
21/06:00pm WSW 15 28 - - - - - Cloudy - 9.5 1009.7 1.2
21/05:30pm WSW 17 30 - - - - - Partly cloudy - 9.7 1009.1 1.2
21/05:00pm WSW 17 30 - - - - - Partly cloudy - 9.4 1008.3 1.2
21/04:59pm WSW 17 31 - - - - - Partly cloudy - 9.4 1008.3 1.2
21/04:33pm WSW 16 27 - - - - - Partly cloudy - 10.1 1007.5 1.2
21/04:30pm W 16 26 - - - - - Partly cloudy - 9.9 1007.5 1.2
21/04:14pm W 16 26 - - - - - Partly cloudy - 10.2 1007.0 1.2
21/04:00pm W 18 26 - - - - - Partly cloudy - 10.1 1006.8 1.2
21/03:31pm WSW 15 28 - - - - - Partly cloudy - 10.3 1005.9 1.2
21/03:30pm WSW 14 23 - - - - - Partly cloudy - 10.3 1006.0 1.2
21/03:00pm WSW 19 34 - - - - - Cloudy Recent precip. 10.3 1005.0 1.0
21/02:30pm SW 18 31 - - - - - Partly cloudy - 10.3 1004.0 0.8
21/02:22pm WSW 21 32 - - - - - Partly cloudy - 10.6 1003.4 0.8
21/02:04pm W 25 47 - - - - - Partly cloudy - 10.1 1002.8 0.8
21/02:00pm W 29 47 - - - - - Partly cloudy - 10.0 1003.0 0.8
21/01:56pm W 32 47 - - - - - Partly cloudy - 9.9 1002.9 0.8
21/01:36pm NW 24 37 - - - - - Cloudy - 11.5 1002.1 0.6
21/01:30pm NNW 23 30 - - - - - Cloudy - 12.5 1002.0 0.6
21/01:00pm N 22 28 - - - - - Partly cloudy - 13.0 1001.9 0.6
21/12:54pm N 20 27 - - - - - Partly cloudy - 13.1 1001.8 0.6
21/12:30pm N 18 23 - - - - - Partly cloudy - 13.3 1001.9 0.6
21/12:04pm N 15 25 - - - - - Partly cloudy - 13.1 1003.0 0.2
21/12:00pm N 12 18 - - - - - Cloudy - 13.2 1002.9 0.0
21/11:30am N 11 15 - - - - - Partly cloudy - 14.5 1001.8 0.0
21/11:00am NE 11 14 - - - - - Partly cloudy - 13.7 1002.6 0.0
21/10:30am ENE 14 18 - - - - - - - 13.8 1002.7 0.0
21/10:00am ENE 17 22 - - - - - - - 13.8 1002.9 0.0
21/09:30am ENE 18 22 - - - - - - - 13.7 1003.6 0.0
21/09:00am ENE 18 21 - - - - - Mostly cloudy - 13.5 1003.7 0.0
21/08:30am ENE 18 22 - - - - - - - 13.6 1004.2 0.0
21/08:00am ENE 19 25 - - - - - - - 13.6 1004.6 0.0
21/07:30am E 21 26 - - - - - Cloudy - 13.7 1004.5 0.0
21/07:00am E 20 23 - - - - - Cloudy - 13.7 1004.8 0.0
21/06:30am E 21 26 - - - - - - - 13.7 1004.9 0.0
21/06:00am E 22 28 - - - - - Cloudy - 13.3 1004.8 0.0
21/05:30am E 24 30 - - - - - Partly cloudy - 13.3 1004.8 0.0
21/05:00am E 24 30 - - - - - - - 13.1 1005.1 0.0
21/04:39am E 22 28 - - - - - Partly cloudy - 13.1 1005.6 0.0
21/04:30am E 23 29 - - - - - Partly cloudy - 13.1 1005.8 0.0
21/04:21am E 23 28 - - - - - Partly cloudy - 13.2 1005.9 0.0
21/04:00am E 22 28 - - - - - - - 13.1 1005.9 0.0
21/03:30am E 25 31 - - - - - - - 13.1 1006.3 0.0
21/03:00am E 25 31 - - - - - - - 13.0 1006.8 0.0
21/02:30am E 25 30 - - - - - - - 13.0 1007.2 0.0
21/02:00am E 25 29 - - - - - - - 12.9 1007.9 0.0
21/01:30am E 24 29 - - - - - - - 13.0 1008.3 0.0
21/01:00am E 21 25 - - - - - Partly cloudy - 13.0 1009.1 0.0
21/12:30am E 21 27 - - - - - Partly cloudy - 13.2 1009.6 0.0
21/12:00am E 22 27 - - - - - Mostly cloudy - 13.1 1009.8 0.0
 
Date/Time
EST
Wind Sea
Height
m
Swell Vis
km
Cloud Weather Temp
°C
Press
hPa
Rain since
9am
mm
Dir  Spd
kts
Gust
kts
Height
m
Period
s
Dir
20/11:30pm E 24 30 - - - - - - - 13.2 1010.4 0.0
20/11:00pm E 22 26 - - - - - - - 12.9 1011.1 0.0
20/10:30pm E 20 23 - - - - - - - 12.9 1011.7 0.0
20/10:00pm E 20 25 - - - - - - - 13.0 1012.3 0.0
20/09:30pm E 12 16 - - - - - - - 13.0 1013.3 0.0
20/09:00pm E 14 17 - - - - - Mostly cloudy - 13.3 1013.8 0.0
20/08:30pm E 17 19 - - - - - - - 13.3 1013.7 0.0
20/08:00pm E 17 19 - - - - - - - 13.2 1014.0 0.0
20/07:30pm E 17 20 - - - - - - - 13.2 1013.9 0.0
20/07:00pm E 15 18 - - - - - Partly cloudy - 13.2 1013.9 0.0
20/06:30pm E 15 19 - - - - - - - 13.1 1014.0 0.0
20/06:00pm E 15 18 - - - - - Cloudy - 13.4 1014.1 0.0
20/05:30pm E 15 18 - - - - - - - 13.9 1013.8 0.0
20/05:00pm ENE 15 18 - - - - - - - 14.0 1013.5 0.0
20/04:30pm ENE 15 18 - - - - - - - 14.3 1013.7 0.0
20/04:00pm ENE 13 16 - - - - - - - 14.8 1013.7 0.0
20/03:30pm ENE 14 17 - - - - - - - 14.5 1013.7 0.0
20/03:00pm ENE 15 19 - - - - - Mostly cloudy - 15.4 1014.1 0.0
20/02:30pm ENE 14 16 - - - - - - - 15.4 1014.5 0.0
20/02:00pm ENE 15 18 - - - - - - - 15.1 1014.7 0.0
20/01:30pm NE 17 21 - - - - - - - 15.3 1014.9 0.0
20/01:00pm ENE 17 21 - - - - - - - 15.8 1015.2 0.0
20/12:30pm NE 20 24 - - - - - - - 15.9 1015.1 0.0
20/12:00pm ENE 20 24 - - - - - Cloudy - 15.5 1015.2 0.0
20/11:30am ENE 20 24 - - - - - - - 15.7 1015.2 0.0
20/11:00am ENE 20 25 - - - - - - - 15.8 1015.4 0.0
20/10:30am ENE 21 25 - - - - - - - 15.2 1015.3 0.0
20/10:00am ENE 21 25 - - - - - - - 15.5 1015.5 0.0
20/09:30am ENE 21 26 - - - - - - - 15.2 1015.8 0.0
20/09:00am ENE 21 27 - - - - - Mostly cloudy - 14.5 1015.9 0.0
20/08:30am ENE 21 25 - - - - - - - 14.4 1016.0 0.0
20/08:00am ENE 21 27 - - - - - - - 14.1 1016.1 0.0
20/07:30am ENE 20 24 - - - - - - - 13.6 1016.0 0.0
20/07:00am ENE 21 25 - - - - - - - 13.3 1015.5 0.0
20/06:30am ENE 22 28 - - - - - - - 13.0 1015.3 0.0
20/06:00am ENE 23 30 - - - - - Cloudy - 12.7 1015.2 0.0
20/05:30am ENE 22 29 - - - - - - - 12.5 1015.2 0.0
20/05:00am ENE 23 28 - - - - - - - 12.6 1015.1 0.0
20/04:30am ENE 23 27 - - - - - - - 12.6 1015.0 0.0
20/04:00am ENE 24 29 - - - - - - - 12.5 1014.9 0.0
20/03:30am ENE 22 27 - - - - - - - 12.6 1015.1 0.0
20/03:00am ENE 23 27 - - - - - - - 12.6 1015.0 0.0
20/02:30am ENE 22 26 - - - - - - - 12.6 1015.2 0.0
20/02:00am ENE 22 27 - - - - - - - 12.5 1015.4 0.0
20/01:30am ENE 22 27 - - - - - Partly cloudy - 12.5 1015.5 0.0
20/01:00am ENE 21 25 - - - - - Partly cloudy - 12.5 1015.8 0.0
20/12:30am ENE 23 29 - - - - - - - 12.8 1015.9 0.0
20/12:00am ENE 24 29 - - - - - - - 12.9 1016.0 0.0
 
Date/Time
EST
Wind Sea
Height
m
Swell Vis
km
Cloud Weather Temp
°C
Press
hPa
Rain since
9am
mm
Dir  Spd
kts
Gust
kts
Height
m
Period
s
Dir
19/11:30pm ENE 24 29 - - - - - - - 12.9 1016.0 0.0
19/11:00pm ENE 25 30 - - - - - - - 13.0 1016.1 0.0
19/10:30pm ENE 24 30 - - - - - - - 13.0 1016.3 0.0
19/10:00pm ENE 25 30 - - - - - - - 12.9 1016.4 0.0
19/09:30pm ENE 26 32 - - - - - - - 12.7 1016.3 0.0
19/09:00pm ENE 25 33 - - - - - - - 12.5 1016.4 0.0
19/08:30pm ENE 26 31 - - - - - - - 12.4 1016.1 0.0
19/08:00pm ENE 25 30 - - - - - - - 12.4 1016.1 0.0
19/07:30pm ENE 25 30 - - - - - - - 12.3 1016.0 0.0
19/07:00pm ENE 25 31 - - - - - - - 12.3 1016.0 0.0
19/06:30pm ENE 27 34 - - - - - - - 12.2 1015.7 0.0
19/06:00pm ENE 28 33 - - - - - Cloudy - 12.1 1015.7 0.0
19/05:30pm ENE 27 33 - - - - - - - 12.4 1015.7 0.0
19/05:00pm ENE 28 33 - - - - - - - 12.3 1015.6 0.0
19/04:30pm ENE 29 37 - - - - - - - 12.8 1015.3 0.0
19/04:00pm ENE 27 34 - - - - - - - 12.9 1015.9 0.0
19/03:30pm ENE 25 34 - - - - - - - 13.3 1016.4 0.0
19/03:00pm ENE 25 33 - - - - - - - 13.7 1017.1 0.0
19/02:30pm ENE 25 31 - - - - - - - 13.7 1017.7 0.0
19/02:00pm ENE 24 29 - - - - - - - 13.9 1018.2 0.0
19/01:30pm ENE 22 28 - - - - - - - 14.0 1018.6 0.0
19/01:00pm ENE 24 30 - - - - - - - 14.0 1019.2 0.0
19/12:30pm ENE 23 30 - - - - - - - 14.3 1019.6 0.0
19/12:00pm ENE 25 30 - - - - - - - 13.8 1020.2 0.0
19/11:30am ENE 25 30 - - - - - - - 13.8 1020.4 0.0
19/11:00am ENE 24 30 - - - - - - - 13.7 1021.0 0.0
19/10:30am ENE 24 30 - - - - - - - 13.1 1021.2 0.0
19/10:00am ENE 23 29 - - - - - - - 12.8 1021.8 0.0

Other formats

Comma delimited format used in spreadsheet applications
http://www.bom.gov.au/fwo/IDV60701/IDV60701.95954.axf

JavaScript Object Notation format (JSON) in row-major order
http://www.bom.gov.au/fwo/IDV60701/IDV60701.95954.json

Data quality

Most of these data are generated automatically and are frequently updated. Quality checks on data are not normally performed. It is possible for incorrect values to appear. Refer to information at About Latest Weather Observations and please check the disclaimer before using these data.